sensor_id;sensor_type;location;lat;lon;timestamp;P1;durP1;ratioP1;P2;durP2;ratioP2
6121;SDS011;3091;51.506;7.672;2024-02-16T00:01:54;15.50;;;14.80;;
6121;SDS011;3091;51.506;7.672;2024-02-16T00:04:20;16.50;;;15.80;;
6121;SDS011;3091;51.506;7.672;2024-02-16T00:06:46;15.53;;;14.93;;
6121;SDS011;3091;51.506;7.672;2024-02-16T00:09:14;16.90;;;15.43;;
6121;SDS011;3091;51.506;7.672;2024-02-16T00:11:40;15.30;;;14.70;;
6121;SDS011;3091;51.506;7.672;2024-02-16T00:14:06;15.53;;;14.83;;
6121;SDS011;3091;51.506;7.672;2024-02-16T00:16:32;15.47;;;14.87;;
6121;SDS011;3091;51.506;7.672;2024-02-16T00:18:58;15.90;;;15.20;;
6121;SDS011;3091;51.506;7.672;2024-02-16T00:21:24;16.67;;;15.57;;
6121;SDS011;3091;51.506;7.672;2024-02-16T00:23:51;15.70;;;15.10;;
6121;SDS011;3091;51.506;7.672;2024-02-16T00:26:17;15.30;;;14.70;;
6121;SDS011;3091;51.506;7.672;2024-02-16T00:28:43;16.13;;;15.33;;
6121;SDS011;3091;51.506;7.672;2024-02-16T00:31:09;15.43;;;14.80;;
6121;SDS011;3091;51.506;7.672;2024-02-16T00:33:35;15.50;;;14.90;;
6121;SDS011;3091;51.506;7.672;2024-02-16T00:36:01;16.77;;;15.33;;
6121;SDS011;3091;51.506;7.672;2024-02-16T00:38:27;15.20;;;14.60;;
6121;SDS011;3091;51.506;7.672;2024-02-16T00:40:53;15.37;;;14.77;;
6121;SDS011;3091;51.506;7.672;2024-02-16T00:43:21;15.60;;;15.00;;
6121;SDS011;3091;51.506;7.672;2024-02-16T00:45:47;14.60;;;14.00;;
6121;SDS011;3091;51.506;7.672;2024-02-16T00:48:14;14.40;;;13.90;;
6121;SDS011;3091;51.506;7.672;2024-02-16T00:50:40;15.30;;;14.60;;
6121;SDS011;3091;51.506;7.672;2024-02-16T00:53:07;16.37;;;15.63;;
6121;SDS011;3091;51.506;7.672;2024-02-16T00:55:33;15.20;;;14.60;;
6121;SDS011;3091;51.506;7.672;2024-02-16T00:57:59;15.10;;;14.50;;
6121;SDS011;3091;51.506;7.672;2024-02-16T01:00:25;15.90;;;15.20;;
6121;SDS011;3091;51.506;7.672;2024-02-16T01:02:52;16.13;;;15.33;;
6121;SDS011;3091;51.506;7.672;2024-02-16T01:05:18;15.27;;;14.57;;
6121;SDS011;3091;51.506;7.672;2024-02-16T01:07:44;15.33;;;14.73;;
6121;SDS011;3091;51.506;7.672;2024-02-16T01:10:10;15.57;;;14.87;;
6121;SDS011;3091;51.506;7.672;2024-02-16T01:12:39;16.00;;;15.30;;
6121;SDS011;3091;51.506;7.672;2024-02-16T01:15:08;15.60;;;15.00;;
6121;SDS011;3091;51.506;7.672;2024-02-16T01:17:34;15.60;;;15.00;;
6121;SDS011;3091;51.506;7.672;2024-02-16T01:20:00;16.03;;;15.13;;
6121;SDS011;3091;51.506;7.672;2024-02-16T01:22:27;15.60;;;15.00;;
6121;SDS011;3091;51.506;7.672;2024-02-16T01:24:55;15.50;;;14.90;;
6121;SDS011;3091;51.506;7.672;2024-02-16T01:27:21;15.70;;;15.10;;
6121;SDS011;3091;51.506;7.672;2024-02-16T01:29:47;15.47;;;14.87;;
6121;SDS011;3091;51.506;7.672;2024-02-16T01:32:13;15.70;;;15.10;;
6121;SDS011;3091;51.506;7.672;2024-02-16T01:34:39;15.03;;;14.43;;
6121;SDS011;3091;51.506;7.672;2024-02-16T01:37:05;15.93;;;15.23;;
6121;SDS011;3091;51.506;7.672;2024-02-16T01:39:31;15.50;;;14.70;;
6121;SDS011;3091;51.506;7.672;2024-02-16T01:41:59;14.87;;;14.27;;
6121;SDS011;3091;51.506;7.672;2024-02-16T01:44:25;14.33;;;13.80;;
6121;SDS011;3091;51.506;7.672;2024-02-16T01:46:51;14.77;;;14.17;;
6121;SDS011;3091;51.506;7.672;2024-02-16T01:49:17;14.80;;;14.20;;
6121;SDS011;3091;51.506;7.672;2024-02-16T01:51:43;15.53;;;14.83;;
6121;SDS011;3091;51.506;7.672;2024-02-16T01:54:11;15.57;;;14.93;;
6121;SDS011;3091;51.506;7.672;2024-02-16T01:56:37;15.00;;;14.40;;
6121;SDS011;3091;51.506;7.672;2024-02-16T01:59:03;14.80;;;14.20;;
6121;SDS011;3091;51.506;7.672;2024-02-16T02:01:29;15.10;;;14.50;;
6121;SDS011;3091;51.506;7.672;2024-02-16T02:03:55;15.27;;;14.60;;
6121;SDS011;3091;51.506;7.672;2024-02-16T02:06:21;15.10;;;14.50;;
6121;SDS011;3091;51.506;7.672;2024-02-16T02:08:47;14.87;;;14.27;;
6121;SDS011;3091;51.506;7.672;2024-02-16T02:11:14;14.90;;;14.30;;
6121;SDS011;3091;51.506;7.672;2024-02-16T02:13:40;15.17;;;14.57;;
6121;SDS011;3091;51.506;7.672;2024-02-16T02:16:06;14.50;;;13.90;;
6121;SDS011;3091;51.506;7.672;2024-02-16T02:18:33;15.30;;;14.40;;
6121;SDS011;3091;51.506;7.672;2024-02-16T02:20:59;15.07;;;14.47;;
6121;SDS011;3091;51.506;7.672;2024-02-16T02:23:25;15.03;;;14.43;;
6121;SDS011;3091;51.506;7.672;2024-02-16T02:25:52;14.60;;;14.00;;
6121;SDS011;3091;51.506;7.672;2024-02-16T02:28:18;14.93;;;14.33;;
6121;SDS011;3091;51.506;7.672;2024-02-16T02:30:46;15.03;;;14.43;;
6121;SDS011;3091;51.506;7.672;2024-02-16T02:33:13;13.73;;;13.23;;
6121;SDS011;3091;51.506;7.672;2024-02-16T02:35:39;14.60;;;14.10;;
6121;SDS011;3091;51.506;7.672;2024-02-16T02:38:08;14.90;;;14.30;;
6121;SDS011;3091;51.506;7.672;2024-02-16T02:40:35;14.10;;;13.60;;
6121;SDS011;3091;51.506;7.672;2024-02-16T02:43:02;15.10;;;14.50;;
6121;SDS011;3091;51.506;7.672;2024-02-16T02:45:28;15.83;;;15.17;;
6121;SDS011;3091;51.506;7.672;2024-02-16T02:47:55;15.67;;;14.97;;
6121;SDS011;3091;51.506;7.672;2024-02-16T02:50:21;15.27;;;14.67;;
6121;SDS011;3091;51.506;7.672;2024-02-16T02:52:47;14.43;;;13.93;;
6121;SDS011;3091;51.506;7.672;2024-02-16T02:55:14;14.90;;;14.33;;
6121;SDS011;3091;51.506;7.672;2024-02-16T02:57:40;15.07;;;14.47;;
6121;SDS011;3091;51.506;7.672;2024-02-16T03:00:06;14.60;;;14.10;;
6121;SDS011;3091;51.506;7.672;2024-02-16T03:02:39;15.10;;;14.50;;
6121;SDS011;3091;51.506;7.672;2024-02-16T03:05:06;14.30;;;13.73;;
6121;SDS011;3091;51.506;7.672;2024-02-16T03:07:33;14.90;;;14.20;;
6121;SDS011;3091;51.506;7.672;2024-02-16T03:09:59;14.50;;;13.90;;
6121;SDS011;3091;51.506;7.672;2024-02-16T03:12:33;14.10;;;13.60;;
6121;SDS011;3091;51.506;7.672;2024-02-16T03:14:59;14.47;;;13.97;;
6121;SDS011;3091;51.506;7.672;2024-02-16T03:17:25;14.17;;;13.67;;
6121;SDS011;3091;51.506;7.672;2024-02-16T03:19:51;14.43;;;13.83;;
6121;SDS011;3091;51.506;7.672;2024-02-16T03:22:19;14.50;;;13.90;;
6121;SDS011;3091;51.506;7.672;2024-02-16T03:24:46;14.37;;;13.87;;
6121;SDS011;3091;51.506;7.672;2024-02-16T03:27:12;14.40;;;13.70;;
6121;SDS011;3091;51.506;7.672;2024-02-16T03:29:39;14.67;;;14.07;;
6121;SDS011;3091;51.506;7.672;2024-02-16T03:32:05;14.00;;;13.50;;
6121;SDS011;3091;51.506;7.672;2024-02-16T03:34:31;13.90;;;13.40;;
6121;SDS011;3091;51.506;7.672;2024-02-16T03:36:57;15.10;;;14.40;;
6121;SDS011;3091;51.506;7.672;2024-02-16T03:39:24;14.63;;;14.03;;
6121;SDS011;3091;51.506;7.672;2024-02-16T03:41:50;14.30;;;13.80;;
6121;SDS011;3091;51.506;7.672;2024-02-16T03:44:16;14.30;;;13.80;;
6121;SDS011;3091;51.506;7.672;2024-02-16T03:46:42;14.00;;;13.50;;
6121;SDS011;3091;51.506;7.672;2024-02-16T03:49:08;14.07;;;13.57;;
6121;SDS011;3091;51.506;7.672;2024-02-16T03:51:35;14.07;;;13.57;;
6121;SDS011;3091;51.506;7.672;2024-02-16T03:54:04;14.50;;;14.00;;
6121;SDS011;3091;51.506;7.672;2024-02-16T03:56:30;14.60;;;14.00;;
6121;SDS011;3091;51.506;7.672;2024-02-16T03:58:57;14.60;;;14.10;;
6121;SDS011;3091;51.506;7.672;2024-02-16T04:01:23;14.83;;;14.23;;
6121;SDS011;3091;51.506;7.672;2024-02-16T04:03:49;14.47;;;13.97;;
6121;SDS011;3091;51.506;7.672;2024-02-16T04:06:17;14.60;;;14.10;;
6121;SDS011;3091;51.506;7.672;2024-02-16T04:08:44;15.13;;;14.43;;
6121;SDS011;3091;51.506;7.672;2024-02-16T04:11:13;15.60;;;15.00;;
6121;SDS011;3091;51.506;7.672;2024-02-16T04:13:40;15.60;;;15.00;;
6121;SDS011;3091;51.506;7.672;2024-02-16T04:16:06;16.17;;;15.47;;
6121;SDS011;3091;51.506;7.672;2024-02-16T04:18:32;15.03;;;14.50;;
6121;SDS011;3091;51.506;7.672;2024-02-16T04:21:01;14.73;;;14.23;;
6121;SDS011;3091;51.506;7.672;2024-02-16T04:23:27;15.80;;;15.17;;
6121;SDS011;3091;51.506;7.672;2024-02-16T04:25:53;15.80;;;15.20;;
6121;SDS011;3091;51.506;7.672;2024-02-16T04:28:19;15.10;;;14.50;;
6121;SDS011;3091;51.506;7.672;2024-02-16T04:30:45;15.77;;;15.07;;
6121;SDS011;3091;51.506;7.672;2024-02-16T04:33:11;15.23;;;14.63;;
6121;SDS011;3091;51.506;7.672;2024-02-16T04:35:37;15.40;;;14.80;;
6121;SDS011;3091;51.506;7.672;2024-02-16T04:38:04;15.80;;;15.20;;
6121;SDS011;3091;51.506;7.672;2024-02-16T04:40:33;15.73;;;14.80;;
6121;SDS011;3091;51.506;7.672;2024-02-16T04:43:01;15.40;;;14.80;;
6121;SDS011;3091;51.506;7.672;2024-02-16T04:45:27;15.50;;;14.80;;
6121;SDS011;3091;51.506;7.672;2024-02-16T04:47:55;14.50;;;14.00;;
6121;SDS011;3091;51.506;7.672;2024-02-16T04:50:21;15.00;;;14.40;;
6121;SDS011;3091;51.506;7.672;2024-02-16T04:52:47;15.00;;;14.40;;
6121;SDS011;3091;51.506;7.672;2024-02-16T04:55:13;15.40;;;14.80;;
6121;SDS011;3091;51.506;7.672;2024-02-16T04:57:39;14.50;;;14.00;;
6121;SDS011;3091;51.506;7.672;2024-02-16T05:00:06;14.60;;;14.10;;
6121;SDS011;3091;51.506;7.672;2024-02-16T05:02:34;16.27;;;15.47;;
6121;SDS011;3091;51.506;7.672;2024-02-16T05:05:00;15.10;;;14.50;;
6121;SDS011;3091;51.506;7.672;2024-02-16T05:07:26;14.30;;;13.80;;
6121;SDS011;3091;51.506;7.672;2024-02-16T05:09:52;15.10;;;14.50;;
6121;SDS011;3091;51.506;7.672;2024-02-16T05:12:23;14.60;;;14.10;;
6121;SDS011;3091;51.506;7.672;2024-02-16T05:14:52;15.10;;;14.40;;
6121;SDS011;3091;51.506;7.672;2024-02-16T05:17:18;15.20;;;14.60;;
6121;SDS011;3091;51.506;7.672;2024-02-16T05:19:47;15.20;;;14.60;;
6121;SDS011;3091;51.506;7.672;2024-02-16T05:22:14;15.10;;;14.50;;
6121;SDS011;3091;51.506;7.672;2024-02-16T05:24:43;14.77;;;14.17;;
6121;SDS011;3091;51.506;7.672;2024-02-16T05:27:09;15.00;;;14.40;;
6121;SDS011;3091;51.506;7.672;2024-02-16T05:29:36;15.10;;;14.50;;
6121;SDS011;3091;51.506;7.672;2024-02-16T05:32:02;15.00;;;14.40;;
6121;SDS011;3091;51.506;7.672;2024-02-16T05:34:28;15.00;;;14.40;;
6121;SDS011;3091;51.506;7.672;2024-02-16T05:37:00;16.17;;;15.57;;
6121;SDS011;3091;51.506;7.672;2024-02-16T05:39:26;16.00;;;15.40;;
6121;SDS011;3091;51.506;7.672;2024-02-16T05:41:56;16.77;;;15.97;;
6121;SDS011;3091;51.506;7.672;2024-02-16T05:44:22;15.70;;;15.10;;
6121;SDS011;3091;51.506;7.672;2024-02-16T05:46:48;17.07;;;16.37;;
6121;SDS011;3091;51.506;7.672;2024-02-16T05:49:14;16.73;;;16.10;;
6121;SDS011;3091;51.506;7.672;2024-02-16T05:51:44;16.63;;;15.93;;
6121;SDS011;3091;51.506;7.672;2024-02-16T05:54:31;16.40;;;15.60;;
6121;SDS011;3091;51.506;7.672;2024-02-16T05:56:57;15.80;;;15.20;;
6121;SDS011;3091;51.506;7.672;2024-02-16T05:59:23;16.47;;;15.77;;
6121;SDS011;3091;51.506;7.672;2024-02-16T06:01:50;17.57;;;16.87;;
6121;SDS011;3091;51.506;7.672;2024-02-16T06:04:16;16.70;;;15.90;;
6121;SDS011;3091;51.506;7.672;2024-02-16T06:06:42;17.63;;;16.90;;
6121;SDS011;3091;51.506;7.672;2024-02-16T06:09:08;17.13;;;16.43;;
6121;SDS011;3091;51.506;7.672;2024-02-16T06:11:37;18.00;;;17.30;;
6121;SDS011;3091;51.506;7.672;2024-02-16T06:14:04;17.60;;;16.83;;
6121;SDS011;3091;51.506;7.672;2024-02-16T06:16:30;17.40;;;16.70;;
6121;SDS011;3091;51.506;7.672;2024-02-16T06:18:56;17.33;;;16.63;;
6121;SDS011;3091;51.506;7.672;2024-02-16T06:21:22;17.33;;;16.67;;
6121;SDS011;3091;51.506;7.672;2024-02-16T06:23:48;16.20;;;15.60;;
6121;SDS011;3091;51.506;7.672;2024-02-16T06:26:14;17.10;;;16.40;;
6121;SDS011;3091;51.506;7.672;2024-02-16T06:28:40;16.00;;;15.40;;
6121;SDS011;3091;51.506;7.672;2024-02-16T06:31:06;16.73;;;16.13;;
6121;SDS011;3091;51.506;7.672;2024-02-16T06:33:32;17.43;;;16.73;;
6121;SDS011;3091;51.506;7.672;2024-02-16T06:35:58;17.03;;;16.33;;
6121;SDS011;3091;51.506;7.672;2024-02-16T06:38:27;16.70;;;16.00;;
6121;SDS011;3091;51.506;7.672;2024-02-16T06:40:53;17.43;;;16.60;;
6121;SDS011;3091;51.506;7.672;2024-02-16T06:43:19;17.10;;;16.40;;
6121;SDS011;3091;51.506;7.672;2024-02-16T06:45:45;18.10;;;17.40;;
6121;SDS011;3091;51.506;7.672;2024-02-16T06:48:11;17.57;;;16.70;;
6121;SDS011;3091;51.506;7.672;2024-02-16T06:50:37;17.23;;;16.53;;
6121;SDS011;3091;51.506;7.672;2024-02-16T06:53:03;17.57;;;16.87;;
6121;SDS011;3091;51.506;7.672;2024-02-16T06:55:30;17.03;;;16.40;;
6121;SDS011;3091;51.506;7.672;2024-02-16T06:57:56;17.07;;;16.40;;
6121;SDS011;3091;51.506;7.672;2024-02-16T07:00:22;18.23;;;17.53;;
6121;SDS011;3091;51.506;7.672;2024-02-16T07:02:49;21.43;;;20.23;;
6121;SDS011;3091;51.506;7.672;2024-02-16T07:05:15;20.00;;;19.20;;
6121;SDS011;3091;51.506;7.672;2024-02-16T07:07:42;19.30;;;18.50;;
6121;SDS011;3091;51.506;7.672;2024-02-16T07:10:08;20.43;;;19.63;;
6121;SDS011;3091;51.506;7.672;2024-02-16T07:12:39;19.10;;;18.20;;
6121;SDS011;3091;51.506;7.672;2024-02-16T07:15:05;19.00;;;18.30;;
6121;SDS011;3091;51.506;7.672;2024-02-16T07:17:31;18.77;;;18.07;;
6121;SDS011;3091;51.506;7.672;2024-02-16T07:19:59;18.60;;;17.90;;
6121;SDS011;3091;51.506;7.672;2024-02-16T07:22:29;20.37;;;19.57;;
6121;SDS011;3091;51.506;7.672;2024-02-16T07:24:55;19.87;;;18.87;;
6121;SDS011;3091;51.506;7.672;2024-02-16T07:27:21;19.80;;;19.00;;
6121;SDS011;3091;51.506;7.672;2024-02-16T07:29:47;20.80;;;19.90;;
6121;SDS011;3091;51.506;7.672;2024-02-16T07:32:13;19.37;;;18.47;;
6121;SDS011;3091;51.506;7.672;2024-02-16T07:34:39;19.77;;;18.87;;
6121;SDS011;3091;51.506;7.672;2024-02-16T07:37:08;19.23;;;18.30;;
6121;SDS011;3091;51.506;7.672;2024-02-16T07:39:34;20.17;;;19.27;;
6121;SDS011;3091;51.506;7.672;2024-02-16T07:42:00;19.30;;;18.40;;
6121;SDS011;3091;51.506;7.672;2024-02-16T07:44:27;18.30;;;17.50;;
6121;SDS011;3091;51.506;7.672;2024-02-16T07:46:53;18.17;;;17.23;;
6121;SDS011;3091;51.506;7.672;2024-02-16T07:49:19;17.60;;;16.80;;
6121;SDS011;3091;51.506;7.672;2024-02-16T07:51:48;18.13;;;17.33;;
6121;SDS011;3091;51.506;7.672;2024-02-16T07:54:14;17.90;;;17.10;;
6121;SDS011;3091;51.506;7.672;2024-02-16T07:56:40;18.10;;;17.30;;
6121;SDS011;3091;51.506;7.672;2024-02-16T07:59:06;20.20;;;18.73;;
6121;SDS011;3091;51.506;7.672;2024-02-16T08:01:32;19.43;;;18.63;;
6121;SDS011;3091;51.506;7.672;2024-02-16T08:03:58;20.00;;;19.20;;
6121;SDS011;3091;51.506;7.672;2024-02-16T08:06:25;19.50;;;18.60;;
6121;SDS011;3091;51.506;7.672;2024-02-16T08:08:52;19.10;;;18.30;;
6121;SDS011;3091;51.506;7.672;2024-02-16T08:11:18;20.50;;;19.50;;
6121;SDS011;3091;51.506;7.672;2024-02-16T08:13:45;24.57;;;23.30;;
6121;SDS011;3091;51.506;7.672;2024-02-16T08:16:11;19.20;;;18.37;;
6121;SDS011;3091;51.506;7.672;2024-02-16T08:18:37;20.23;;;19.43;;
6121;SDS011;3091;51.506;7.672;2024-02-16T08:21:03;20.20;;;19.30;;
6121;SDS011;3091;51.506;7.672;2024-02-16T08:23:30;19.53;;;18.73;;
6121;SDS011;3091;51.506;7.672;2024-02-16T08:25:56;18.90;;;18.10;;
6121;SDS011;3091;51.506;7.672;2024-02-16T08:28:23;20.97;;;19.80;;
6121;SDS011;3091;51.506;7.672;2024-02-16T08:30:49;24.03;;;21.63;;
6121;SDS011;3091;51.506;7.672;2024-02-16T08:33:16;19.30;;;18.50;;
6121;SDS011;3091;51.506;7.672;2024-02-16T08:35:42;18.87;;;18.07;;
6121;SDS011;3091;51.506;7.672;2024-02-16T08:38:08;19.60;;;18.70;;
6121;SDS011;3091;51.506;7.672;2024-02-16T08:40:44;19.90;;;19.00;;
6121;SDS011;3091;51.506;7.672;2024-02-16T08:43:14;19.87;;;18.97;;
6121;SDS011;3091;51.506;7.672;2024-02-16T08:45:40;19.27;;;18.47;;
6121;SDS011;3091;51.506;7.672;2024-02-16T08:48:07;19.90;;;19.10;;
6121;SDS011;3091;51.506;7.672;2024-02-16T08:50:33;19.27;;;18.47;;
6121;SDS011;3091;51.506;7.672;2024-02-16T08:52:59;19.30;;;18.40;;
6121;SDS011;3091;51.506;7.672;2024-02-16T08:55:25;21.57;;;19.70;;
6121;SDS011;3091;51.506;7.672;2024-02-16T08:57:51;20.43;;;19.43;;
6121;SDS011;3091;51.506;7.672;2024-02-16T09:00:17;19.03;;;18.33;;
6121;SDS011;3091;51.506;7.672;2024-02-16T09:02:44;18.77;;;18.07;;
6121;SDS011;3091;51.506;7.672;2024-02-16T09:05:11;18.87;;;18.07;;
6121;SDS011;3091;51.506;7.672;2024-02-16T09:07:37;18.33;;;17.63;;
6121;SDS011;3091;51.506;7.672;2024-02-16T09:10:04;19.17;;;18.07;;
6121;SDS011;3091;51.506;7.672;2024-02-16T09:12:30;18.50;;;17.80;;
6121;SDS011;3091;51.506;7.672;2024-02-16T09:14:56;19.13;;;18.43;;
6121;SDS011;3091;51.506;7.672;2024-02-16T09:17:22;18.37;;;17.67;;
6121;SDS011;3091;51.506;7.672;2024-02-16T09:19:48;19.70;;;18.90;;
6121;SDS011;3091;51.506;7.672;2024-02-16T09:22:14;19.20;;;18.50;;
6121;SDS011;3091;51.506;7.672;2024-02-16T09:24:41;18.57;;;17.87;;
6121;SDS011;3091;51.506;7.672;2024-02-16T09:27:07;19.77;;;18.90;;
6121;SDS011;3091;51.506;7.672;2024-02-16T09:29:35;18.37;;;17.67;;
6121;SDS011;3091;51.506;7.672;2024-02-16T09:32:01;19.07;;;18.37;;
6121;SDS011;3091;51.506;7.672;2024-02-16T09:34:28;19.37;;;18.60;;
6121;SDS011;3091;51.506;7.672;2024-02-16T09:36:54;18.57;;;17.87;;
6121;SDS011;3091;51.506;7.672;2024-02-16T09:39:20;18.10;;;17.30;;
6121;SDS011;3091;51.506;7.672;2024-02-16T09:41:48;17.00;;;16.40;;
6121;SDS011;3091;51.506;7.672;2024-02-16T09:44:16;18.30;;;17.60;;
6121;SDS011;3091;51.506;7.672;2024-02-16T09:46:42;17.63;;;17.03;;
6121;SDS011;3091;51.506;7.672;2024-02-16T09:49:09;18.53;;;17.83;;
6121;SDS011;3091;51.506;7.672;2024-02-16T09:51:36;18.53;;;17.83;;
6121;SDS011;3091;51.506;7.672;2024-02-16T09:54:02;19.40;;;18.70;;
6121;SDS011;3091;51.506;7.672;2024-02-16T09:56:28;19.83;;;19.13;;
6121;SDS011;3091;51.506;7.672;2024-02-16T09:58:54;19.87;;;19.17;;
6121;SDS011;3091;51.506;7.672;2024-02-16T10:01:22;19.60;;;18.90;;
6121;SDS011;3091;51.506;7.672;2024-02-16T10:03:49;20.20;;;19.40;;
6121;SDS011;3091;51.506;7.672;2024-02-16T10:06:15;20.23;;;19.53;;
6121;SDS011;3091;51.506;7.672;2024-02-16T10:08:51;20.43;;;19.63;;
6121;SDS011;3091;51.506;7.672;2024-02-16T10:11:18;18.97;;;18.27;;
6121;SDS011;3091;51.506;7.672;2024-02-16T10:13:54;21.20;;;19.40;;
6121;SDS011;3091;51.506;7.672;2024-02-16T10:16:21;18.60;;;17.90;;
6121;SDS011;3091;51.506;7.672;2024-02-16T10:18:47;18.70;;;18.00;;
6121;SDS011;3091;51.506;7.672;2024-02-16T10:21:13;18.97;;;18.27;;
6121;SDS011;3091;51.506;7.672;2024-02-16T10:23:39;17.53;;;16.93;;
6121;SDS011;3091;51.506;7.672;2024-02-16T10:26:05;17.97;;;17.27;;
6121;SDS011;3091;51.506;7.672;2024-02-16T10:28:31;17.50;;;16.90;;
6121;SDS011;3091;51.506;7.672;2024-02-16T10:31:00;17.30;;;16.70;;
6121;SDS011;3091;51.506;7.672;2024-02-16T10:33:26;17.80;;;17.10;;
6121;SDS011;3091;51.506;7.672;2024-02-16T10:35:53;17.53;;;16.93;;
6121;SDS011;3091;51.506;7.672;2024-02-16T10:38:22;18.10;;;17.40;;
6121;SDS011;3091;51.506;7.672;2024-02-16T10:40:48;18.10;;;17.40;;
6121;SDS011;3091;51.506;7.672;2024-02-16T10:43:16;17.80;;;17.10;;
6121;SDS011;3091;51.506;7.672;2024-02-16T10:45:43;19.97;;;19.10;;
6121;SDS011;3091;51.506;7.672;2024-02-16T10:48:17;19.17;;;18.47;;
6121;SDS011;3091;51.506;7.672;2024-02-16T10:50:43;18.77;;;18.07;;
6121;SDS011;3091;51.506;7.672;2024-02-16T10:53:31;22.73;;;21.63;;
6121;SDS011;3091;51.506;7.672;2024-02-16T10:55:57;18.90;;;18.20;;
6121;SDS011;3091;51.506;7.672;2024-02-16T10:58:24;19.40;;;18.70;;
6121;SDS011;3091;51.506;7.672;2024-02-16T11:00:54;19.30;;;18.50;;
6121;SDS011;3091;51.506;7.672;2024-02-16T11:03:24;18.60;;;17.90;;
6121;SDS011;3091;51.506;7.672;2024-02-16T11:05:51;19.20;;;18.50;;
6121;SDS011;3091;51.506;7.672;2024-02-16T11:08:18;19.67;;;18.97;;
6121;SDS011;3091;51.506;7.672;2024-02-16T11:13:23;18.93;;;18.23;;
6121;SDS011;3091;51.506;7.672;2024-02-16T11:16:07;18.10;;;17.40;;
6121;SDS011;3091;51.506;7.672;2024-02-16T11:18:37;19.10;;;18.40;;
6121;SDS011;3091;51.506;7.672;2024-02-16T11:21:05;19.50;;;18.70;;
6121;SDS011;3091;51.506;7.672;2024-02-16T11:23:34;18.17;;;17.57;;
6121;SDS011;3091;51.506;7.672;2024-02-16T11:28:28;18.17;;;17.37;;
6121;SDS011;3091;51.506;7.672;2024-02-16T11:30:56;17.17;;;16.57;;
6121;SDS011;3091;51.506;7.672;2024-02-16T11:33:22;19.80;;;19.10;;
6121;SDS011;3091;51.506;7.672;2024-02-16T11:35:52;19.60;;;18.80;;
6121;SDS011;3091;51.506;7.672;2024-02-16T11:38:18;19.90;;;19.20;;
6121;SDS011;3091;51.506;7.672;2024-02-16T11:40:54;20.80;;;20.00;;
6121;SDS011;3091;51.506;7.672;2024-02-16T11:43:21;20.10;;;19.40;;
6121;SDS011;3091;51.506;7.672;2024-02-16T11:45:50;20.10;;;19.40;;
6121;SDS011;3091;51.506;7.672;2024-02-16T11:48:22;19.87;;;18.87;;
6121;SDS011;3091;51.506;7.672;2024-02-16T11:50:49;19.33;;;18.63;;
6121;SDS011;3091;51.506;7.672;2024-02-16T11:53:16;19.60;;;18.90;;
6121;SDS011;3091;51.506;7.672;2024-02-16T11:55:47;19.23;;;18.53;;
6121;SDS011;3091;51.506;7.672;2024-02-16T11:58:16;18.67;;;18.00;;
6121;SDS011;3091;51.506;7.672;2024-02-16T12:00:46;20.90;;;19.90;;
6121;SDS011;3091;51.506;7.672;2024-02-16T12:03:21;20.07;;;19.27;;
6121;SDS011;3091;51.506;7.672;2024-02-16T12:05:51;18.40;;;17.70;;
6121;SDS011;3091;51.506;7.672;2024-02-16T12:08:18;19.07;;;18.37;;
6121;SDS011;3091;51.506;7.672;2024-02-16T12:10:45;19.20;;;18.40;;
6121;SDS011;3091;51.506;7.672;2024-02-16T12:13:12;18.43;;;17.77;;
6121;SDS011;3091;51.506;7.672;2024-02-16T12:15:39;19.00;;;18.30;;
6121;SDS011;3091;51.506;7.672;2024-02-16T12:18:05;18.63;;;17.83;;
6121;SDS011;3091;51.506;7.672;2024-02-16T12:20:31;18.57;;;17.77;;
6121;SDS011;3091;51.506;7.672;2024-02-16T12:22:57;20.30;;;19.47;;
6121;SDS011;3091;51.506;7.672;2024-02-16T12:25:24;19.63;;;18.83;;
6121;SDS011;3091;51.506;7.672;2024-02-16T12:27:51;20.07;;;19.27;;
6121;SDS011;3091;51.506;7.672;2024-02-16T12:30:17;19.43;;;18.73;;
6121;SDS011;3091;51.506;7.672;2024-02-16T12:32:43;18.50;;;17.80;;
6121;SDS011;3091;51.506;7.672;2024-02-16T12:35:09;19.20;;;18.50;;
6121;SDS011;3091;51.506;7.672;2024-02-16T12:37:35;18.37;;;17.67;;
6121;SDS011;3091;51.506;7.672;2024-02-16T12:40:02;20.10;;;19.30;;
6121;SDS011;3091;51.506;7.672;2024-02-16T12:42:31;18.73;;;18.03;;
6121;SDS011;3091;51.506;7.672;2024-02-16T12:44:57;20.17;;;19.37;;
6121;SDS011;3091;51.506;7.672;2024-02-16T12:47:23;19.50;;;18.80;;
6121;SDS011;3091;51.506;7.672;2024-02-16T12:49:49;20.17;;;18.93;;
6121;SDS011;3091;51.506;7.672;2024-02-16T12:52:20;19.80;;;19.03;;
6121;SDS011;3091;51.506;7.672;2024-02-16T12:54:49;19.33;;;18.60;;
6121;SDS011;3091;51.506;7.672;2024-02-16T12:57:15;19.77;;;19.07;;
6121;SDS011;3091;51.506;7.672;2024-02-16T12:59:41;20.37;;;19.47;;
6121;SDS011;3091;51.506;7.672;2024-02-16T13:02:07;20.50;;;19.23;;
6121;SDS011;3091;51.506;7.672;2024-02-16T13:04:33;21.03;;;20.13;;
6121;SDS011;3091;51.506;7.672;2024-02-16T13:07:00;19.80;;;19.00;;
6121;SDS011;3091;51.506;7.672;2024-02-16T13:09:26;20.10;;;19.40;;
6121;SDS011;3091;51.506;7.672;2024-02-16T13:11:53;19.90;;;19.10;;
6121;SDS011;3091;51.506;7.672;2024-02-16T13:14:22;19.00;;;18.30;;
6121;SDS011;3091;51.506;7.672;2024-02-16T13:16:48;20.70;;;19.70;;
6121;SDS011;3091;51.506;7.672;2024-02-16T13:19:14;25.60;;;24.60;;
6121;SDS011;3091;51.506;7.672;2024-02-16T13:21:43;33.90;;;32.40;;
6121;SDS011;3091;51.506;7.672;2024-02-16T13:24:09;38.37;;;36.30;;
6121;SDS011;3091;51.506;7.672;2024-02-16T13:26:35;45.20;;;43.00;;
6121;SDS011;3091;51.506;7.672;2024-02-16T13:29:01;58.87;;;56.07;;
6121;SDS011;3091;51.506;7.672;2024-02-16T13:31:28;82.80;;;78.90;;
6121;SDS011;3091;51.506;7.672;2024-02-16T13:33:54;116.37;;;111.60;;
6121;SDS011;3091;51.506;7.672;2024-02-16T13:36:20;140.50;;;135.10;;
6121;SDS011;3091;51.506;7.672;2024-02-16T13:38:46;151.53;;;145.57;;
6121;SDS011;3091;51.506;7.672;2024-02-16T13:41:13;137.20;;;131.70;;
6121;SDS011;3091;51.506;7.672;2024-02-16T13:43:39;135.77;;;130.27;;
6121;SDS011;3091;51.506;7.672;2024-02-16T13:46:05;129.80;;;124.50;;
6121;SDS011;3091;51.506;7.672;2024-02-16T13:48:33;140.17;;;134.47;;
6121;SDS011;3091;51.506;7.672;2024-02-16T13:51:02;139.27;;;133.47;;
6121;SDS011;3091;51.506;7.672;2024-02-16T13:53:28;141.50;;;135.60;;
6121;SDS011;3091;51.506;7.672;2024-02-16T13:55:55;138.07;;;132.27;;
6121;SDS011;3091;51.506;7.672;2024-02-16T13:58:25;126.97;;;121.67;;
6121;SDS011;3091;51.506;7.672;2024-02-16T14:00:52;118.40;;;113.23;;
6121;SDS011;3091;51.506;7.672;2024-02-16T14:03:18;112.93;;;107.93;;
6121;SDS011;3091;51.506;7.672;2024-02-16T14:05:44;90.53;;;86.20;;
6121;SDS011;3091;51.506;7.672;2024-02-16T14:08:12;88.40;;;84.00;;
6121;SDS011;3091;51.506;7.672;2024-02-16T14:10:40;86.27;;;82.37;;
6121;SDS011;3091;51.506;7.672;2024-02-16T14:13:08;59.90;;;57.00;;
6121;SDS011;3091;51.506;7.672;2024-02-16T14:15:34;59.43;;;56.43;;
6121;SDS011;3091;51.506;7.672;2024-02-16T14:18:00;68.80;;;65.47;;
6121;SDS011;3091;51.506;7.672;2024-02-16T14:20:26;63.93;;;60.83;;
6121;SDS011;3091;51.506;7.672;2024-02-16T14:22:52;80.50;;;76.70;;
6121;SDS011;3091;51.506;7.672;2024-02-16T14:25:18;83.27;;;79.17;;
6121;SDS011;3091;51.506;7.672;2024-02-16T14:27:45;80.13;;;76.00;;
6121;SDS011;3091;51.506;7.672;2024-02-16T14:30:11;82.43;;;78.13;;
6121;SDS011;3091;51.506;7.672;2024-02-16T14:32:38;77.13;;;73.33;;
6121;SDS011;3091;51.506;7.672;2024-02-16T14:35:04;77.23;;;73.33;;
6121;SDS011;3091;51.506;7.672;2024-02-16T14:37:33;75.10;;;71.30;;
6121;SDS011;3091;51.506;7.672;2024-02-16T14:39:59;76.00;;;72.10;;
6121;SDS011;3091;51.506;7.672;2024-02-16T14:42:26;73.77;;;69.97;;
6121;SDS011;3091;51.506;7.672;2024-02-16T14:44:56;76.73;;;72.83;;
6121;SDS011;3091;51.506;7.672;2024-02-16T14:47:24;87.50;;;83.40;;
6121;SDS011;3091;51.506;7.672;2024-02-16T14:49:50;86.43;;;82.27;;